Terminal Aerodrome Forecast
Issued by NWS Cleveland, OH

Home | Current Version | Previous Version | Graphics & Text | Print | Product List | Glossary Off
Versions: 1 2 3 4 5 6 7 8 9 10 11 12 13 14 15 16 17 18 19 20 21 22 23 24

282
FTUS41 KCLE 220525
TAFCLE
TAF
KCLE 220525Z 2206/2312 31012KT P6SM OVC015
      TEMPO 2206/2210 OVC025
     FM221000 31012KT P6SM BKN035
     FM221700 31010KT P6SM SCT040
     FM222200 VRB06KT P6SM SCT250
     FM230800 20007KT P6SM BKN120=

USA.gov is the U.S. government's official web portal to all federal, state and local government web resources and services.